createdAt,value
2023-05-19T00:03:59.170Z,9.98
2023-05-19T00:09:07.383Z,10.70
2023-05-19T00:14:10.377Z,10.43
2023-05-19T00:19:12.775Z,9.70
2023-05-19T00:24:15.079Z,10.13
2023-05-19T00:29:19.132Z,10.18
2023-05-19T00:34:21.910Z,10.60
2023-05-19T00:39:24.190Z,10.05
2023-05-19T00:44:26.782Z,10.50
2023-05-19T00:49:29.032Z,10.55
2023-05-19T00:54:32.430Z,10.00
2023-05-19T00:59:34.756Z,10.85
2023-05-19T01:04:41.900Z,10.20
2023-05-19T01:09:44.709Z,10.52
2023-05-19T01:14:47.126Z,10.25
2023-05-19T01:20:02.310Z,10.80
2023-05-19T01:30:37.514Z,11.30
2023-05-19T01:35:41.582Z,12.77
2023-05-19T01:40:44.987Z,13.70
2023-05-19T01:45:49.402Z,13.50
2023-05-19T01:50:52.448Z,13.65
2023-05-19T01:55:56.277Z,14.88
2023-05-19T02:06:37.227Z,15.10
2023-05-19T02:11:56.584Z,15.02
2023-05-19T02:16:59.509Z,16.52
2023-05-19T02:22:01.844Z,15.20
2023-05-19T02:27:04.391Z,16.00
2023-05-19T02:32:07.192Z,15.95
2023-05-19T02:37:09.629Z,15.20
2023-05-19T02:42:12.548Z,16.58
2023-05-19T02:47:14.827Z,16.70
2023-05-19T02:52:17.188Z,16.55
2023-05-19T02:57:19.508Z,15.88
2023-05-19T03:02:21.813Z,15.85
2023-05-19T03:07:25.376Z,15.52
2023-05-19T03:12:27.936Z,15.70
2023-05-19T03:17:34.245Z,16.10
2023-05-19T03:22:36.960Z,15.02
2023-05-19T03:27:39.527Z,15.45
2023-05-19T03:32:42.103Z,15.57
2023-05-19T03:37:44.573Z,14.60
2023-05-19T03:42:47.074Z,14.55
2023-05-19T03:47:49.497Z,14.40
2023-05-19T03:53:04.870Z,14.57
2023-05-19T03:58:14.713Z,14.13
2023-05-19T04:03:17.071Z,13.32
2023-05-19T04:08:19.424Z,13.73
2023-05-19T04:13:22.065Z,13.88
2023-05-19T04:18:25.485Z,14.10
2023-05-19T04:23:28.691Z,13.10
2023-05-19T04:28:31.174Z,14.13
2023-05-19T04:33:34.101Z,25.38
2023-05-19T04:38:37.598Z,14.00
2023-05-19T04:43:41.939Z,14.05
2023-05-19T04:48:45.222Z,12.98
2023-05-19T04:53:47.796Z,13.70
2023-05-19T04:58:50.814Z,13.50
2023-05-19T05:03:55.412Z,12.88
2023-05-19T05:08:58.165Z,37.95
2023-05-19T05:14:01.409Z,13.18
2023-05-19T05:19:05.846Z,14.10
2023-05-19T05:24:09.625Z,12.77
2023-05-19T05:29:12.337Z,12.48
2023-05-19T05:34:15.156Z,12.45
2023-05-19T05:39:18.655Z,13.43
2023-05-19T05:44:22.077Z,13.63
2023-05-19T05:49:26.588Z,12.75
2023-05-19T05:54:30.298Z,12.52
2023-05-19T05:59:34.027Z,12.40
2023-05-19T06:04:36.459Z,12.57
2023-05-19T06:09:40.105Z,12.60
2023-05-19T06:14:44.363Z,12.50
2023-05-19T06:19:59.645Z,12.25
2023-05-19T06:25:02.241Z,12.48
2023-05-19T06:30:04.963Z,12.82
2023-05-19T06:35:13.521Z,12.70
2023-05-19T06:40:16.196Z,13.10
2023-05-19T06:45:22.028Z,12.68
2023-05-19T06:50:26.627Z,13.15
2023-05-19T06:55:30.284Z,13.82
2023-05-19T07:00:33.205Z,12.98
2023-05-19T07:05:36.746Z,13.60
2023-05-19T07:10:40.253Z,13.30
2023-05-19T07:15:49.219Z,12.80
2023-05-19T07:20:53.998Z,13.85
2023-05-19T07:25:56.988Z,13.45
2023-05-19T07:30:59.428Z,14.18
2023-05-19T07:36:01.730Z,14.57
2023-05-19T07:41:04.473Z,15.02
2023-05-19T07:46:07.013Z,14.38
2023-05-19T07:51:10.369Z,13.80
2023-05-19T07:56:12.646Z,14.43
2023-05-19T08:01:16.514Z,15.50
2023-05-19T08:06:18.814Z,15.10
2023-05-19T08:11:21.684Z,16.10
2023-05-19T08:16:24.569Z,14.63
2023-05-19T08:21:26.904Z,16.15
2023-05-19T08:26:29.435Z,15.50
2023-05-19T08:31:31.871Z,15.63
2023-05-19T08:36:34.566Z,15.77
2023-05-19T08:41:36.929Z,16.50
2023-05-19T08:46:39.316Z,16.77
2023-05-19T08:57:15.742Z,24.90
2023-05-19T09:02:19.634Z,16.30
2023-05-19T09:07:23.186Z,15.90
2023-05-19T09:12:25.517Z,18.25
2023-05-19T09:17:27.867Z,16.05
2023-05-19T09:22:30.720Z,16.08
2023-05-19T09:27:33.899Z,15.95
2023-05-19T09:32:36.389Z,15.18
2023-05-19T09:37:41.625Z,13.82
2023-05-19T09:42:45.045Z,14.05
2023-05-19T09:47:47.422Z,14.05
2023-05-19T09:52:50.412Z,13.77
2023-05-19T09:57:56.492Z,12.65
2023-05-19T10:03:00.580Z,13.07
2023-05-19T10:08:07.267Z,12.63
2023-05-19T10:13:10.201Z,12.95
2023-05-19T10:18:13.770Z,12.80
2023-05-19T10:23:16.455Z,12.02
2023-05-19T10:28:23.688Z,14.13
2023-05-19T10:39:08.184Z,12.50
2023-05-19T10:44:23.407Z,11.68
2023-05-19T10:49:26.309Z,12.65
2023-05-19T10:54:47.909Z,12.85
2023-05-19T10:59:50.320Z,11.52
2023-05-19T11:04:53.592Z,11.98
2023-05-19T11:09:55.930Z,11.90
2023-05-19T11:14:59.447Z,11.52
2023-05-19T11:20:01.788Z,11.93
2023-05-19T11:25:04.619Z,10.60
2023-05-19T11:35:21.237Z,11.50
2023-05-19T11:40:24.056Z,12.60
2023-05-19T11:45:27.484Z,12.65
2023-05-19T11:50:32.090Z,13.15
2023-05-19T11:55:34.363Z,13.00
2023-05-19T12:00:40.971Z,12.38
2023-05-19T12:05:46.687Z,12.45
2023-05-19T12:10:51.041Z,11.43
2023-05-19T12:15:53.777Z,11.25
2023-05-19T12:20:56.244Z,10.27
2023-05-19T12:26:00.963Z,10.60
2023-05-19T12:31:03.385Z,10.20
2023-05-19T12:36:06.407Z,10.23
2023-05-19T12:41:13.702Z,9.98
2023-05-19T12:46:16.713Z,10.55
2023-05-19T12:51:20.270Z,9.80
2023-05-19T12:56:27.152Z,10.30
2023-05-19T13:01:31.257Z,9.85
2023-05-19T13:06:34.167Z,10.70
2023-05-19T13:11:36.388Z,9.60
2023-05-19T13:16:38.628Z,9.57
2023-05-19T13:21:41.446Z,10.02
2023-05-19T13:26:45.643Z,9.57
2023-05-19T13:31:47.927Z,10.40
2023-05-19T13:36:50.236Z,10.25
2023-05-19T13:41:52.570Z,9.52
2023-05-19T13:46:54.921Z,10.23
2023-05-19T13:51:58.719Z,10.20
2023-05-19T13:57:01.567Z,9.52
2023-05-19T14:02:04.977Z,9.63
2023-05-19T14:07:08.032Z,9.65
2023-05-19T14:12:12.285Z,9.57
2023-05-19T14:17:14.491Z,9.50
2023-05-19T14:22:18.239Z,9.50
2023-05-19T14:27:20.555Z,8.93
2023-05-19T14:32:22.936Z,9.25
2023-05-19T14:37:28.867Z,9.40
2023-05-19T14:42:31.318Z,9.07
2023-05-19T14:47:33.723Z,9.45
2023-05-19T14:52:36.032Z,9.48
2023-05-19T14:57:38.445Z,10.02
2023-05-19T15:02:41.048Z,9.85
2023-05-19T15:07:43.464Z,10.95
2023-05-19T15:12:45.703Z,9.40
2023-05-19T15:17:48.074Z,9.35
2023-05-19T15:22:50.362Z,9.50
2023-05-19T15:27:52.607Z,10.18
2023-05-19T15:32:55.629Z,9.48
2023-05-19T15:37:57.954Z,9.52
2023-05-19T15:43:00.229Z,10.05
2023-05-19T15:48:02.571Z,9.27
2023-05-19T15:53:06.835Z,9.80
2023-05-19T15:58:09.121Z,9.77
2023-05-19T16:03:11.416Z,9.85
2023-05-19T16:08:13.651Z,9.43
2023-05-19T16:13:15.982Z,9.52
2023-05-19T16:18:18.432Z,9.75
2023-05-19T16:23:20.897Z,9.63
2023-05-19T16:28:25.001Z,9.70
2023-05-19T16:33:28.359Z,11.15
2023-05-19T16:38:30.782Z,9.85
2023-05-19T16:43:34.017Z,9.35
2023-05-19T16:48:36.397Z,9.98
2023-05-19T16:53:39.855Z,10.35
2023-05-19T16:58:42.234Z,9.60
2023-05-19T17:03:44.543Z,10.32
2023-05-19T17:08:46.798Z,11.02
2023-05-19T17:13:49.040Z,9.85
2023-05-19T17:18:51.626Z,10.07
2023-05-19T17:23:53.942Z,10.00
2023-05-19T17:28:56.196Z,9.60
2023-05-19T17:33:58.414Z,10.27
2023-05-19T17:39:00.692Z,11.00
2023-05-19T17:44:03.889Z,10.02
2023-05-19T17:49:06.704Z,9.95
2023-05-19T17:54:09.414Z,10.15
2023-05-19T17:59:12.151Z,10.05
2023-05-19T18:04:16.198Z,9.98
2023-05-19T18:09:20.243Z,11.82
2023-05-19T18:14:22.685Z,10.05
2023-05-19T18:19:24.974Z,10.50
2023-05-19T18:24:27.219Z,10.63
2023-05-19T18:29:29.419Z,10.18
2023-05-19T18:34:31.643Z,10.27
2023-05-19T18:39:33.869Z,9.68
2023-05-19T18:44:36.114Z,10.85
2023-05-19T18:49:38.342Z,10.88
2023-05-19T18:54:42.314Z,11.82
2023-05-19T18:59:44.576Z,10.73
2023-05-19T19:04:46.856Z,10.50
2023-05-19T19:09:49.157Z,11.57
2023-05-19T19:14:51.367Z,10.73
2023-05-19T19:19:53.728Z,10.07
2023-05-19T19:24:56.030Z,10.18
2023-05-19T19:29:59.555Z,10.27
2023-05-19T19:35:01.957Z,10.05
2023-05-19T19:40:04.554Z,9.57
2023-05-19T19:45:07.566Z,9.77
2023-05-19T19:50:10.988Z,10.85
2023-05-19T19:55:13.424Z,9.93
2023-05-19T20:00:16.201Z,9.85
2023-05-19T20:05:18.715Z,10.05
2023-05-19T20:10:20.986Z,10.13
2023-05-19T20:15:23.239Z,10.20
2023-05-19T20:20:25.556Z,10.10
2023-05-19T20:25:27.818Z,10.85
2023-05-19T20:30:30.081Z,10.25
2023-05-19T20:35:32.555Z,10.82
2023-05-19T20:40:37.867Z,9.90
2023-05-19T20:45:43.803Z,9.88
2023-05-19T20:50:46.366Z,10.60
2023-05-19T20:56:10.582Z,9.15
2023-05-19T21:01:12.947Z,8.98
2023-05-19T21:06:15.262Z,8.90
2023-05-19T21:11:17.535Z,9.40
2023-05-19T21:16:20.047Z,13.18
2023-05-19T21:21:22.363Z,9.38
2023-05-19T21:26:24.591Z,9.65
2023-05-19T21:31:26.912Z,8.70
2023-05-19T21:36:29.174Z,9.82
2023-05-19T21:41:32.512Z,13.57
2023-05-19T21:46:35.274Z,9.45
2023-05-19T21:51:37.823Z,9.40
2023-05-19T21:56:40.319Z,11.85
2023-05-19T22:01:42.951Z,15.77
2023-05-19T22:06:45.795Z,8.70
2023-05-19T22:11:48.243Z,8.60
2023-05-19T22:16:50.597Z,9.80
2023-05-19T22:22:01.878Z,8.93
2023-05-19T22:27:08.522Z,9.05
2023-05-19T22:32:12.350Z,9.45
2023-05-19T22:37:15.264Z,9.40
2023-05-19T22:42:18.588Z,9.35
2023-05-19T22:47:20.972Z,9.13
2023-05-19T22:52:23.368Z,9.30
2023-05-19T22:57:25.717Z,9.35
2023-05-19T23:02:28.024Z,9.77
2023-05-19T23:07:30.316Z,9.82
2023-05-19T23:12:32.585Z,9.35
2023-05-19T23:17:34.872Z,9.38
2023-05-19T23:22:37.322Z,9.27
2023-05-19T23:27:39.686Z,9.75
2023-05-19T23:32:42.027Z,9.27
2023-05-19T23:37:44.375Z,9.38
2023-05-19T23:42:46.719Z,9.88
2023-05-19T23:47:49.147Z,9.88
2023-05-19T23:52:51.588Z,9.85
2023-05-19T23:57:53.893Z,9.90
